Decoded Metar for KHKY (HICKORY in NC, USA) (IATA:HKY) | Meteo·Mobile Aviation Weather
aviador You're here:

KHKY Decoded Metar

HICKORY in NC, USA
Report Time2019-02-23 23:20:00
UTC Time2019-02-23 23:34:07
Flight Rules ifr IFR
Wind080° at 03 kt
W.Decomp.*RWY 06: 2.7 kt HW 1.3 kt RCW
RWY 01: 0.7 kt HW 2.9 kt RCW
W.Rank080° ranks 23
Current wind is below 080° avg. (4.9)
Visibility9999 m
Phenomena:N/A
Clouds:Broken 006 Hf
Broken 014 Hf
Overcast 048 Hf
Expected CloudBase > 400 ft AGL from Temp-Dew spread
Ceiling600 ft
Temp05°C (ISA -8)
Dew Point04°C (93% RH)
AAT2.6°C
QNH1020 hPa
Density Alt112 ft
Elevation1,161 ft
Report Wrong Elevation
Raw Report
KHKY 232320Z AUTO 08003KT 10SM BKN006 BKN014 OVC048 05/04 A3013
RMK AO2 T00500044=

Extra information for KHKY:More info

Metar Taf Metar & Taf Last 4 Metars F.Rules Stats Wind Profile Meteogram Temp Stats Airport Information Weather charts Add Link Nearby VenuesMetar ALERT Operation Metar Decoded Social comments

AIRNAV info for KHKY